首页
METAR-TAF:

METAR-TAF

机场 :

Marshall County Airport

Lacon, 伊利诺伊州, 美国

纬度: 41-01-09N, 经度: 089-23-11W, 海拔: 173米

当前天气观测

该预报发布于22分钟前的20:35 UTC
风速5节,风向西转西北
温度 24°C
湿度 44%
气压 1018 hPa
能見度: 16.1公里
天空无云

METAR: KC75 232035Z AUTO 30005KT 10SM CLR 24/11 A3005 RMK AO2 T02380112

时间: 15:57 (20:57 UTC)


TAF: 丢失

超过4000个机场的气象观测和天气预报(METAR&TAF报告)。

可查询的气象台以黄色和红色小点在地图上表示。

将鼠标移到小点上方,可查看气象台名称。

然后点击查看天气观测和预报。

如需切换地图:点击带黑十字的绿色按钮放大地图;点击带横线的绿色按钮缩小地图;或者点击绿色箭头查看邻近地区的地图。


METAR-TAF: